Time;durP1;ratioP1;P1;durP2;ratioP2;P2;SDS_P1;SDS_P2;PMS_P1;PMS_P2;Temp;Humidity;BMP_temperature;BMP_pressure;BME280_temperature;BME280_humidity;BME280_pressure;Samples;Min_cycle;Max_cycle;Signal;HPM_P1;HPM_P2
2023/08/24 00:01:17;;;;;;;9.38;7.53;;;;;;;19.99;93.81;93243.13;5055484;28;20134;-79
2023/08/24 00:03:45;;;;;;;10.45;7.60;;;;;;;20.05;94.35;93255.13;5051978;28;20053;-79
2023/08/24 00:06:12;;;;;;;10.00;7.80;;;;;;;19.97;94.94;93251.22;5052904;28;20052;-79
2023/08/24 00:08:39;;;;;;;10.45;8.27;;;;;;;19.92;95.35;93247.81;5053923;28;20523;-79
2023/08/24 00:11:07;;;;;;;11.32;8.30;;;;;;;19.97;95.57;93261.66;5055866;28;20079;-79
2023/08/24 00:13:36;;;;;;;10.95;8.52;;;;;;;19.99;96.04;93249.13;5059451;28;20053;-79
2023/08/24 00:16:04;;;;;;;13.02;8.18;;;;;;;20.01;94.43;93241.03;5056111;28;20084;-79
2023/08/24 00:18:30;;;;;;;11.07;7.88;;;;;;;20.02;95.31;93246.00;5058504;28;20132;-79
2023/08/24 00:20:57;;;;;;;11.55;8.82;;;;;;;20.06;94.65;93251.44;5048704;28;20543;-78
2023/08/24 00:23:24;;;;;;;10.20;7.55;;;;;;;20.05;95.22;93242.06;5052006;28;20056;-78
2023/08/24 00:25:52;;;;;;;10.25;8.68;;;;;;;20.05;94.21;93246.50;5060266;28;20110;-78
2023/08/24 00:28:19;;;;;;;11.23;8.40;;;;;;;20.05;93.56;93244.69;5062835;28;20045;-78
2023/08/24 00:30:47;;;;;;;11.25;8.50;;;;;;;20.01;94.00;93244.41;5057432;28;20048;-78
2023/08/24 00:33:14;;;;;;;10.73;8.52;;;;;;;19.93;94.38;93237.13;5053390;28;20095;-78
2023/08/24 00:35:41;;;;;;;11.15;7.63;;;;;;;19.88;94.77;93243.16;5052201;28;20049;-78
2023/08/24 00:38:07;;;;;;;22.25;9.23;;;;;;;19.87;94.58;93236.34;5059543;28;20048;-79
2023/08/24 00:40:34;;;;;;;10.55;8.27;;;;;;;19.85;95.55;93237.69;5068152;28;20098;-79
2023/08/24 00:43:02;;;;;;;10.65;8.27;;;;;;;19.81;95.95;93224.41;5056150;28;20127;-79
2023/08/24 00:45:29;;;;;;;11.80;8.93;;;;;;;19.75;95.71;93226.25;5062435;28;20053;-79
2023/08/24 00:47:57;;;;;;;10.60;7.93;;;;;;;19.67;96.67;93223.44;5050491;28;20045;-79
2023/08/24 00:50:23;;;;;;;11.00;7.70;;;;;;;19.67;97.92;93239.81;5058890;28;20049;-79
2023/08/24 00:52:50;;;;;;;12.05;8.30;;;;;;;19.60;99.25;93242.72;5053849;28;20098;-79
2023/08/24 00:55:18;;;;;;;11.77;8.50;;;;;;;19.31;100.00;93245.91;5060975;28;20057;-79
2023/08/24 00:57:45;;;;;;;11.20;8.77;;;;;;;19.36;100.00;93240.69;5058526;28;20051;-79
2023/08/24 01:00:13;;;;;;;10.23;8.05;;;;;;;19.44;99.36;93236.00;5056176;28;20125;-78
2023/08/24 01:02:40;;;;;;;11.20;9.00;;;;;;;19.46;100.00;93233.91;5057697;28;20767;-79
2023/08/24 01:05:08;;;;;;;10.00;8.20;;;;;;;19.49;99.81;93228.16;5053676;28;20419;-78
2023/08/24 01:07:37;;;;;;;10.55;8.82;;;;;;;19.30;100.00;93196.69;5054135;28;20559;-78
2023/08/24 01:10:06;;;;;;;11.02;8.73;;;;;;;19.46;99.92;93223.47;5054100;28;20076;-78
2023/08/24 01:12:43;;;;;;;13.98;9.05;;;;;;;19.45;98.93;93225.28;5053447;28;20110;-78
2023/08/24 01:15:16;;;;;;;10.68;8.55;;;;;;;19.46;99.51;93226.88;5052228;28;20049;-78
2023/08/24 01:17:44;;;;;;;9.82;7.85;;;;;;;19.43;99.07;93230.00;5064510;28;20045;-78
2023/08/24 01:20:16;;;;;;;10.68;8.63;;;;;;;19.40;99.58;93230.53;5054503;28;20103;-78
2023/08/24 01:22:55;;;;;;;11.20;8.88;;;;;;;19.39;99.16;93230.78;5063619;28;20056;-78
2023/08/24 01:25:30;;;;;;;10.93;8.30;;;;;;;19.40;99.04;93227.16;5053754;28;20076;-78
2023/08/24 01:27:59;;;;;;;10.60;8.48;;;;;;;19.26;98.95;93208.69;5061563;28;20044;-78
2023/08/24 01:30:26;;;;;;;11.07;8.77;;;;;;;19.31;99.48;93226.91;5056670;28;20048;-78
2023/08/24 01:32:53;;;;;;;10.82;8.70;;;;;;;19.23;99.95;93228.22;5053753;28;20563;-78
2023/08/24 01:35:20;;;;;;;9.73;8.18;;;;;;;19.19;99.74;93220.16;5050655;28;20045;-77
2023/08/24 01:37:47;;;;;;;11.27;8.25;;;;;;;19.09;99.98;93217.56;5050315;28;20040;-77
2023/08/24 01:40:18;;;;;;;11.38;8.43;;;;;;;19.18;99.90;93225.63;5054538;28;20489;-78
2023/08/24 01:42:52;;;;;;;11.90;8.77;;;;;;;19.23;99.69;93223.00;5057278;28;20087;-77
2023/08/24 01:45:25;;;;;;;9.95;7.45;;;;;;;19.21;98.88;93227.72;5058265;28;20048;-78
2023/08/24 01:47:55;;;;;;;10.77;8.52;;;;;;;19.18;99.35;93223.81;5051071;28;20174;-78
2023/08/24 01:50:22;;;;;;;11.00;9.30;;;;;;;19.15;98.58;93219.13;5056018;28;20126;-78
2023/08/24 01:52:49;;;;;;;9.65;7.90;;;;;;;19.16;99.04;93222.50;5061950;28;20102;-79
2023/08/24 01:55:19;;;;;;;12.95;8.52;;;;;;;19.07;99.69;93217.81;5055358;28;20052;-78
2023/08/24 01:57:45;;;;;;;13.25;8.98;;;;;;;18.94;100.00;93205.31;5059332;28;20056;-78
2023/08/24 02:00:13;;;;;;;10.23;7.57;;;;;;;18.96;100.00;93222.22;5055704;28;20098;-79
2023/08/24 02:02:41;;;;;;;14.07;8.77;;;;;;;18.87;100.00;93221.19;5055905;28;20126;-77
2023/08/24 02:05:08;;;;;;;11.82;8.70;;;;;;;18.89;100.00;93228.75;5051254;28;20044;-78
2023/08/24 02:07:35;;;;;;;10.23;8.32;;;;;;;18.70;100.00;93213.63;5052455;28;20049;-78
2023/08/24 02:10:02;;;;;;;12.20;8.95;;;;;;;18.77;100.00;93234.19;5053625;28;20632;-78
2023/08/24 02:12:29;;;;;;;10.27;8.27;;;;;;;18.77;100.00;93226.38;5048955;28;20115;-78
2023/08/24 02:14:55;;;;;;;10.85;8.57;;;;;;;18.77;100.00;93224.56;5051039;28;20037;-77
2023/08/24 02:17:22;;;;;;;10.85;8.93;;;;;;;18.74;100.00;93219.13;5058566;28;20048;-78
2023/08/24 02:19:51;;;;;;;10.43;8.73;;;;;;;18.59;100.00;93205.06;5050661;28;20489;-76
2023/08/24 02:22:18;;;;;;;12.07;8.85;;;;;;;18.72;100.00;93229.00;5052434;28;20048;-77
2023/08/24 02:24:44;;;;;;;11.93;8.55;;;;;;;18.78;100.00;93238.34;5054768;28;20053;-77
2023/08/24 02:27:11;;;;;;;10.77;8.85;;;;;;;18.73;100.00;93233.94;5055856;28;20060;-77
2023/08/24 02:29:38;;;;;;;9.35;7.90;;;;;;;18.72;100.00;93231.59;5050334;28;20057;-77
2023/08/24 02:32:06;;;;;;;10.80;8.55;;;;;;;18.70;100.00;93232.63;5060863;28;20049;-77
2023/08/24 02:34:32;;;;;;;10.68;7.90;;;;;;;18.66;100.00;93234.19;5052000;28;20390;-76
2023/08/24 02:37:01;;;;;;;13.23;8.80;;;;;;;18.62;100.00;93240.97;5051523;28;20045;-76
2023/08/24 02:39:27;;;;;;;12.05;9.30;;;;;;;18.61;100.00;93239.38;5050396;28;20045;-76
2023/08/24 02:41:54;;;;;;;13.23;9.48;;;;;;;18.58;100.00;93234.72;5052930;28;20053;-77
2023/08/24 02:44:21;;;;;;;11.18;8.88;;;;;;;18.59;100.00;93235.47;5047683;28;20049;-77
2023/08/24 02:46:49;;;;;;;10.63;8.07;;;;;;;18.56;100.00;93240.16;5057249;28;20048;-76
2023/08/24 02:49:16;;;;;;;11.18;8.18;;;;;;;18.53;100.00;93239.91;5056407;28;20053;-77
2023/08/24 02:51:42;;;;;;;10.25;8.35;;;;;;;18.53;100.00;93229.50;5054001;28;20049;-77
2023/08/24 02:54:10;;;;;;;14.02;8.48;;;;;;;18.52;100.00;93231.31;5051956;28;20049;-76
2023/08/24 02:56:37;;;;;;;11.07;9.82;;;;;;;18.55;100.00;93233.41;5051528;28;20052;-76
2023/08/24 02:59:04;;;;;;;17.20;9.48;;;;;;;18.55;100.00;93230.81;5053227;28;20048;-76
2023/08/24 03:01:30;;;;;;;11.65;8.75;;;;;;;18.46;100.00;93224.53;5048116;28;20049;-76
2023/08/24 03:03:57;;;;;;;11.15;8.65;;;;;;;18.47;100.00;93223.50;5050960;28;20053;-77
2023/08/24 03:06:24;;;;;;;11.63;8.75;;;;;;;18.41;100.00;93227.13;5051840;28;20053;-77
2023/08/24 03:08:51;;;;;;;10.85;8.68;;;;;;;18.42;100.00;93224.28;5051244;28;20091;-76
2023/08/24 03:11:19;;;;;;;11.32;8.55;;;;;;;18.38;100.00;93225.06;5052539;28;20041;-76
2023/08/24 03:13:46;;;;;;;11.07;8.70;;;;;;;18.32;100.00;93232.06;5049048;28;20053;-76
2023/08/24 03:16:13;;;;;;;9.30;8.13;;;;;;;18.28;100.00;93233.59;5050785;28;20077;-76
2023/08/24 03:18:39;;;;;;;10.80;8.35;;;;;;;18.13;100.00;93231.75;5054552;28;20052;-76
2023/08/24 03:21:06;;;;;;;11.57;8.93;;;;;;;18.07;100.00;93228.38;5049135;28;20163;-76
2023/08/24 03:23:33;;;;;;;10.45;9.15;;;;;;;17.71;100.00;93243.78;5051924;28;20493;-76
2023/08/24 03:26:00;;;;;;;10.63;9.20;;;;;;;17.63;100.00;93248.44;5055894;28;21071;-76
2023/08/24 03:28:28;;;;;;;11.70;9.63;;;;;;;17.30;100.00;93254.75;5051192;28;20049;-77
2023/08/24 03:30:55;;;;;;;13.00;10.13;;;;;;;17.07;100.00;93260.06;5050674;28;20049;-76
2023/08/24 03:33:22;;;;;;;12.13;10.23;;;;;;;17.17;100.00;93255.97;5048755;28;20056;-76
2023/08/24 03:35:49;;;;;;;13.48;10.40;;;;;;;17.12;100.00;93261.13;5050182;28;20493;-77
2023/08/24 03:38:16;;;;;;;12.93;10.38;;;;;;;17.15;100.00;93255.41;5060290;28;20064;-76
2023/08/24 03:40:42;;;;;;;13.07;10.48;;;;;;;17.29;100.00;93264.34;5058828;28;20053;-77
2023/08/24 03:43:09;;;;;;;12.57;10.02;;;;;;;17.43;100.00;93256.13;5050902;28;20493;-77
2023/08/24 03:45:37;;;;;;;12.98;10.05;;;;;;;17.58;100.00;93268.41;5049298;28;20128;-77
2023/08/24 03:48:05;;;;;;;11.85;10.40;;;;;;;17.65;100.00;93263.00;5047966;28;20045;-77
2023/08/24 03:50:31;;;;;;;14.63;9.75;;;;;;;17.79;100.00;93273.72;5052106;28;20448;-76
2023/08/24 03:52:58;;;;;;;12.82;9.65;;;;;;;17.86;100.00;93269.06;5052308;28;20040;-77
2023/08/24 03:55:25;;;;;;;12.27;9.73;;;;;;;17.95;100.00;93277.94;5053125;28;20049;-77
2023/08/24 03:57:51;;;;;;;13.35;10.48;;;;;;;17.99;100.00;93276.41;5055566;28;20040;-77
2023/08/24 04:00:18;;;;;;;12.88;10.68;;;;;;;18.05;100.00;93277.19;5057305;28;20052;-77
2023/08/24 04:02:46;;;;;;;14.50;10.75;;;;;;;18.14;100.00;93273.09;5058527;28;20041;-77
2023/08/24 04:05:13;;;;;;;12.82;9.75;;;;;;;18.13;100.00;93268.94;5052240;28;20132;-77
2023/08/24 04:07:41;;;;;;;14.48;10.13;;;;;;;18.19;100.00;93276.75;5059198;28;20063;-76
2023/08/24 04:10:09;;;;;;;14.10;9.98;;;;;;;18.18;100.00;93273.38;5052877;28;20603;-76
2023/08/24 04:12:36;;;;;;;13.13;9.65;;;;;;;18.26;100.00;93274.69;5060667;28;20045;-77
2023/08/24 04:15:04;;;;;;;12.48;9.52;;;;;;;18.33;100.00;93275.22;5052572;28;20099;-77
2023/08/24 04:17:31;;;;;;;12.27;9.80;;;;;;;18.36;100.00;93273.94;5054301;28;20045;-77
2023/08/24 04:19:59;;;;;;;11.50;9.10;;;;;;;18.36;100.00;93276.53;5056599;28;20102;-77
2023/08/24 04:22:25;;;;;;;14.57;10.18;;;;;;;18.30;100.00;93273.16;5051968;28;20514;-77
2023/08/24 04:24:52;;;;;;;19.77;9.52;;;;;;;18.27;100.00;93277.03;5053280;28;20048;-77
2023/08/24 04:27:19;;;;;;;14.57;10.15;;;;;;;18.29;100.00;93287.97;5053220;28;20049;-76
2023/08/24 04:29:46;;;;;;;12.32;9.50;;;;;;;18.28;100.00;93286.41;5051927;28;20048;-76
2023/08/24 04:32:12;;;;;;;12.25;9.23;;;;;;;18.30;100.00;93293.94;5057866;28;20505;-77
2023/08/24 04:34:39;;;;;;;14.38;10.55;;;;;;;18.32;100.00;93296.31;5051639;28;20501;-78
2023/08/24 04:37:08;;;;;;;14.23;10.48;;;;;;;18.34;100.00;93292.41;5054228;28;20091;-78
2023/08/24 04:39:35;;;;;;;12.07;9.05;;;;;;;18.33;100.00;93282.25;5053992;28;20044;-78
2023/08/24 04:42:02;;;;;;;12.43;9.65;;;;;;;18.42;100.00;93291.91;5064702;28;20076;-78
2023/08/24 04:44:29;;;;;;;11.65;9.95;;;;;;;18.44;100.00;93289.06;5055875;28;20563;-76
2023/08/24 04:46:55;;;;;;;13.80;9.90;;;;;;;18.43;100.00;93285.66;5053259;28;20105;-76
2023/08/24 04:49:22;;;;;;;13.02;9.48;;;;;;;18.51;100.00;93292.19;5050284;28;20428;-77
2023/08/24 04:51:49;;;;;;;15.43;9.50;;;;;;;18.56;100.00;93297.41;5058939;28;20041;-77
2023/08/24 04:54:17;;;;;;;12.23;8.20;;;;;;;18.63;100.00;93299.75;5060723;28;20044;-77
2023/08/24 04:56:44;;;;;;;13.02;9.57;;;;;;;18.73;100.00;93295.59;5053118;28;20045;-77
2023/08/24 04:59:11;;;;;;;17.08;9.73;;;;;;;18.81;100.00;93306.31;5053080;28;20056;-77
2023/08/24 05:01:38;;;;;;;12.70;9.57;;;;;;;18.90;100.00;93310.97;5050602;28;20143;-77
2023/08/24 05:04:05;;;;;;;24.27;10.05;;;;;;;18.97;100.00;93303.69;5051569;28;20049;-77
2023/08/24 05:06:31;;;;;;;12.85;9.38;;;;;;;19.04;100.00;93308.69;5052892;28;20098;-77
2023/08/24 05:08:58;;;;;;;14.70;9.90;;;;;;;19.07;100.00;93302.97;5050560;28;20505;-77
2023/08/24 05:11:30;;;;;;;16.13;10.55;;;;;;;19.15;100.00;93309.44;5055905;28;20041;-76
2023/08/24 05:13:57;;;;;;;16.40;10.07;;;;;;;19.14;100.00;93292.28;5058012;28;20231;-75
2023/08/24 05:16:24;;;;;;;17.08;9.70;;;;;;;19.23;100.00;93294.09;5052156;28;20547;-76
2023/08/24 05:18:50;;;;;;;16.80;9.10;;;;;;;19.30;100.00;93306.84;5053454;28;20466;-77
2023/08/24 05:21:17;;;;;;;15.10;9.95;;;;;;;19.39;100.00;93309.69;5052884;28;20052;-77
2023/08/24 05:23:44;;;;;;;19.50;10.43;;;;;;;19.47;100.00;93314.41;5052077;28;20572;-77
2023/08/24 05:26:11;;;;;;;15.02;9.43;;;;;;;19.57;100.00;93312.78;5052968;28;20049;-77
2023/08/24 05:28:39;;;;;;;13.57;9.55;;;;;;;19.63;100.00;93301.34;5060629;28;20052;-77
2023/08/24 05:31:06;;;;;;;16.95;9.85;;;;;;;19.75;100.00;93304.44;5053194;28;20528;-78
2023/08/24 05:33:33;;;;;;;15.73;9.68;;;;;;;19.82;100.00;93295.56;5061575;28;20455;-78
2023/08/24 05:35:59;;;;;;;13.18;9.68;;;;;;;19.98;100.00;93301.53;5051836;28;20489;-79
2023/08/24 05:38:26;;;;;;;13.38;10.52;;;;;;;20.09;100.00;93297.06;5054936;28;20048;-78
2023/08/24 05:40:53;;;;;;;17.08;9.55;;;;;;;20.21;100.00;93304.56;5049950;28;20102;-78
2023/08/24 05:43:20;;;;;;;13.63;9.77;;;;;;;20.25;100.00;93293.34;5050144;28;20037;-78
2023/08/24 05:45:48;;;;;;;13.20;9.40;;;;;;;20.44;100.00;93305.78;5051450;28;20052;-78
2023/08/24 05:48:15;;;;;;;13.93;9.18;;;;;;;20.56;100.00;93315.91;5055671;28;20037;-76
2023/08/24 05:50:45;;;;;;;16.40;10.60;;;;;;;20.44;100.00;93311.00;5050719;28;20102;-77
2023/08/24 05:53:12;;;;;;;12.15;9.25;;;;;;;20.14;100.00;93313.47;5050825;28;20049;-77
2023/08/24 05:55:39;;;;;;;16.40;10.52;;;;;;;20.12;100.00;93307.75;5050742;28;20456;-76
2023/08/24 05:58:06;;;;;;;14.32;9.95;;;;;;;20.22;100.00;93311.38;5051727;28;20079;-77
2023/08/24 06:00:32;;;;;;;14.52;10.45;;;;;;;20.30;100.00;93310.81;5050752;28;20044;-76
2023/08/24 06:03:00;;;;;;;10.90;9.23;;;;;;;20.29;100.00;93319.69;5050490;28;20075;-76
2023/08/24 06:05:27;;;;;;;12.48;9.75;;;;;;;20.29;100.00;93322.28;5051932;28;20049;-76
2023/08/24 06:07:54;;;;;;;12.05;9.32;;;;;;;20.19;100.00;93293.63;5052312;28;20048;-76
2023/08/24 06:10:21;;;;;;;12.07;8.68;;;;;;;20.59;100.00;93322.41;5048933;28;20052;-76
2023/08/24 06:12:48;;;;;;;11.82;9.80;;;;;;;20.81;99.65;93322.00;5055980;28;20122;-76
2023/08/24 06:15:15;;;;;;;13.02;9.43;;;;;;;20.83;97.33;93319.94;5049329;28;20049;-76
2023/08/24 06:17:42;;;;;;;13.73;9.07;;;;;;;21.06;97.05;93325.56;5059615;28;20068;-77
2023/08/24 06:20:12;;;;;;;16.40;10.20;;;;;;;21.23;97.11;93331.16;5048785;28;20049;-78
2023/08/24 06:22:39;;;;;;;13.43;9.43;;;;;;;21.44;94.84;93330.97;5048134;28;20515;-77
2023/08/24 06:25:08;;;;;;;17.92;10.48;;;;;;;21.69;93.94;93344.09;5052111;28;20044;-77
2023/08/24 06:27:35;;;;;;;19.02;11.73;;;;;;;21.82;92.62;93335.66;5054834;28;20095;-77
2023/08/24 06:30:03;;;;;;;13.70;10.80;;;;;;;22.05;91.41;93338.56;5054718;28;20127;-76
2023/08/24 06:32:30;;;;;;;13.02;9.52;;;;;;;22.18;90.06;93326.63;5057068;28;20048;-76
2023/08/24 06:34:57;;;;;;;12.80;9.95;;;;;;;22.49;88.37;93341.19;5049052;28;20041;-77
2023/08/24 06:37:25;;;;;;;15.43;10.05;;;;;;;22.68;87.42;93333.38;5049598;28;20041;-77
2023/08/24 06:39:52;;;;;;;15.63;10.40;;;;;;;22.90;86.45;93329.41;5052482;28;20535;-76
2023/08/24 06:42:18;;;;;;;15.52;10.57;;;;;;;22.92;85.50;93307.09;5057144;28;20049;-76
2023/08/24 06:44:45;;;;;;;15.43;9.43;;;;;;;23.24;84.19;93325.78;5053865;28;20094;-77
2023/08/24 06:47:12;;;;;;;15.15;9.88;;;;;;;23.41;83.78;93324.50;5048488;28;20193;-76
2023/08/24 06:49:38;;;;;;;12.05;8.07;;;;;;;23.61;82.66;93339.09;5047261;28;20045;-77
2023/08/24 06:52:06;;;;;;;12.60;8.77;;;;;;;23.73;81.55;93323.69;5050305;28;20094;-77
2023/08/24 06:54:34;;;;;;;13.32;9.25;;;;;;;24.04;80.90;93338.09;5050101;28;20596;-77
2023/08/24 06:57:01;;;;;;;10.75;8.45;;;;;;;24.25;79.48;93333.25;5049447;28;20166;-77
2023/08/24 06:59:27;;;;;;;20.50;9.98;;;;;;;24.49;79.87;93334.88;5049507;28;20052;-77
2023/08/24 07:01:54;;;;;;;11.70;8.23;;;;;;;24.76;77.41;93335.13;5051236;28;20460;-77
2023/08/24 07:04:21;;;;;;;18.23;8.98;;;;;;;25.00;75.32;93337.53;5052889;28;20040;-77
2023/08/24 07:06:48;;;;;;;12.68;9.10;;;;;;;24.56;75.48;93339.72;5055465;28;20098;-77
2023/08/24 07:09:15;;;;;;;16.27;9.13;;;;;;;24.53;75.73;93340.34;5049346;28;20124;-77
2023/08/24 07:11:43;;;;;;;10.85;8.32;;;;;;;24.76;77.66;93337.75;5053800;28;20041;-77
2023/08/24 07:14:10;;;;;;;13.30;9.10;;;;;;;25.03;76.07;93318.53;5052348;28;20533;-77
2023/08/24 07:16:37;;;;;;;13.63;9.13;;;;;;;25.30;75.35;93329.22;5049750;28;20175;-77
2023/08/24 07:19:05;;;;;;;10.20;7.22;;;;;;;25.58;74.80;93319.38;5051618;28;20106;-77
2023/08/24 07:21:31;;;;;;;10.15;7.88;;;;;;;25.80;71.69;93333.56;5054634;28;20052;-77
2023/08/24 07:23:58;;;;;;;10.18;7.43;;;;;;;25.61;71.22;93324.00;5048258;28;20052;-77
2023/08/24 07:26:25;;;;;;;10.88;7.22;;;;;;;25.77;71.58;93310.47;5046567;28;20056;-77
2023/08/24 07:28:53;;;;;;;10.90;8.25;;;;;;;26.23;72.33;93318.22;5049380;28;20128;-76
2023/08/24 07:31:20;;;;;;;12.75;7.50;;;;;;;26.54;69.85;93317.38;5061483;28;20045;-76
2023/08/24 07:33:47;;;;;;;14.20;7.47;;;;;;;26.87;69.45;93311.69;5057232;28;20057;-76
2023/08/24 07:36:14;;;;;;;9.80;7.07;;;;;;;27.23;66.93;93311.69;5054533;28;20045;-77
2023/08/24 07:38:40;;;;;;;11.65;8.15;;;;;;;27.56;67.56;93314.56;5064077;28;20464;-76
2023/08/24 07:41:09;;;;;;;14.15;7.90;;;;;;;27.85;65.64;93313.13;5059187;28;20053;-76
2023/08/24 07:43:35;;;;;;;13.95;6.65;;;;;;;28.15;64.39;93310.50;5055537;28;20401;-77
2023/08/24 07:46:04;;;;;;;9.45;7.10;;;;;;;28.48;63.32;93309.13;5053225;28;20045;-77
2023/08/24 07:48:31;;;;;;;10.98;7.32;;;;;;;28.70;61.85;93311.75;5051556;28;20527;-76
2023/08/24 07:50:58;;;;;;;12.70;8.13;;;;;;;28.81;61.65;93310.28;5056202;28;20091;-77
2023/08/24 07:53:24;;;;;;;13.65;9.05;;;;;;;28.98;59.92;93312.06;5055928;28;20452;-77
2023/08/24 07:55:51;;;;;;;12.43;8.38;;;;;;;29.12;60.05;93306.50;5053426;28;20049;-77
2023/08/24 07:58:18;;;;;;;19.25;8.77;;;;;;;29.27;59.32;93312.25;5051802;28;20075;-77
2023/08/24 08:00:45;;;;;;;12.43;7.55;;;;;;;29.40;57.21;93307.78;5054107;28;20049;-77
2023/08/24 08:03:13;;;;;;;13.00;7.47;;;;;;;29.49;58.01;93308.50;5053019;28;20132;-77
2023/08/24 08:05:39;;;;;;;10.82;7.85;;;;;;;28.61;57.17;93302.00;5058466;28;20056;-76
2023/08/24 08:08:06;;;;;;;10.35;8.05;;;;;;;28.78;57.77;93310.91;5055250;28;20090;-77
2023/08/24 08:10:33;;;;;;;11.10;8.07;;;;;;;29.00;58.34;93317.78;5052961;28;20059;-77
2023/08/24 08:13:00;;;;;;;16.33;8.40;;;;;;;29.33;59.54;93305.66;5059312;28;20520;-76
2023/08/24 08:15:26;;;;;;;11.02;7.15;;;;;;;29.62;58.20;93319.13;5052527;28;20056;-77
2023/08/24 08:17:53;;;;;;;9.18;6.90;;;;;;;29.83;54.69;93311.88;5050589;28;20558;-77
2023/08/24 08:20:21;;;;;;;10.45;7.18;;;;;;;30.09;55.62;93310.78;5052959;28;20098;-77
2023/08/24 08:22:48;;;;;;;9.30;6.97;;;;;;;30.32;54.29;93299.00;5050277;28;20044;-77
2023/08/24 08:25:17;;;;;;;11.02;7.93;;;;;;;30.61;54.51;93311.22;5059580;28;20052;-77
2023/08/24 08:27:44;;;;;;;9.18;6.63;;;;;;;30.87;54.49;93311.94;5061622;28;20132;-77
2023/08/24 08:30:12;;;;;;;10.60;6.53;;;;;;;30.97;52.93;93300.88;5052979;28;20049;-77
2023/08/24 08:32:39;;;;;;;10.35;7.07;;;;;;;31.26;52.95;93301.63;5057568;28;20075;-77
2023/08/24 08:35:06;;;;;;;8.85;6.68;;;;;;;31.37;51.49;93296.63;5053559;28;20086;-77
2023/08/24 08:37:35;;;;;;;8.55;6.78;;;;;;;31.67;52.97;93298.13;5051147;28;20041;-77
2023/08/24 08:40:05;;;;;;;16.35;9.85;;;;;;;31.93;52.60;93294.22;5051892;28;20043;-77
2023/08/24 08:42:33;;;;;;;9.13;6.65;;;;;;;32.08;50.08;93296.06;5049948;28;20044;-77
2023/08/24 08:45:02;;;;;;;13.90;6.82;;;;;;;32.23;49.54;93288.44;5051321;28;20048;-77
2023/08/24 08:47:29;;;;;;;9.70;6.72;;;;;;;32.29;47.88;93291.63;5052674;28;20836;-77
2023/08/24 08:49:56;;;;;;;11.40;6.47;;;;;;;32.35;48.57;93267.06;5050759;28;20102;-77
2023/08/24 08:52:25;;;;;;;9.93;6.88;;;;;;;32.61;48.54;93286.22;5055388;28;20107;-78
2023/08/24 08:54:53;;;;;;;8.55;7.05;;;;;;;32.59;48.77;93275.97;5055983;28;21195;-78
2023/08/24 08:57:22;;;;;;;15.55;7.82;;;;;;;32.83;49.40;93278.69;5051952;28;20053;-78
2023/08/24 08:59:51;;;;;;;10.05;6.63;;;;;;;32.71;45.86;93277.69;5052436;28;20079;-78
2023/08/24 09:02:20;;;;;;;12.35;6.93;;;;;;;32.66;47.42;93270.00;5052011;28;20049;-78
2023/08/24 09:04:50;;;;;;;11.18;7.43;;;;;;;32.98;48.65;93267.22;5054613;28;20041;-77
2023/08/24 09:07:17;;;;;;;9.25;6.20;;;;;;;32.38;46.00;93245.13;5052155;28;20053;-78
2023/08/24 09:09:44;;;;;;;11.50;6.47;;;;;;;32.23;46.40;93261.88;5051167;28;20626;-78
2023/08/24 09:12:12;;;;;;;8.95;6.43;;;;;;;32.69;47.06;93260.56;5052886;28;20119;-78
2023/08/24 09:14:39;;;;;;;10.85;6.55;;;;;;;33.07;45.87;93251.06;5052180;28;20185;-78
2023/08/24 09:17:06;;;;;;;10.05;7.20;;;;;;;33.23;46.60;93256.28;5051260;28;20053;-78
2023/08/24 09:19:35;;;;;;;7.97;6.55;;;;;;;33.17;45.30;93255.81;5051408;28;20045;-78
2023/08/24 09:22:03;;;;;;;13.73;7.00;;;;;;;33.51;45.30;93251.81;5052067;28;20505;-78
2023/08/24 09:24:33;;;;;;;7.78;6.03;;;;;;;32.76;42.08;93242.09;5052228;28;20057;-78
2023/08/24 09:27:00;;;;;;;7.53;6.03;;;;;;;31.85;42.91;93248.88;5050670;28;20147;-77
2023/08/24 09:29:37;;;;;;;8.07;6.35;;;;;;;31.63;45.37;93233.53;5052015;28;20102;-77
2023/08/24 09:32:04;;;;;;;8.88;6.07;;;;;;;31.89;44.51;93227.75;5050700;28;20462;-78
2023/08/24 09:34:31;;;;;;;8.40;5.55;;;;;;;31.75;44.79;93238.00;5053363;28;20048;-77
2023/08/24 09:36:58;;;;;;;7.72;6.47;;;;;;;31.65;43.73;93234.72;5048940;28;20048;-78
2023/08/24 09:39:25;;;;;;;8.32;6.40;;;;;;;31.60;45.20;93235.00;5050360;28;20114;-78
2023/08/24 09:41:51;;;;;;;13.07;6.38;;;;;;;31.67;44.87;93231.75;5050498;28;20554;-78
2023/08/24 09:44:18;;;;;;;9.05;6.38;;;;;;;31.88;45.25;93233.38;5051531;28;20084;-78
2023/08/24 09:46:47;;;;;;;8.43;6.75;;;;;;;31.42;46.04;93229.28;5051432;28;20484;-78
2023/08/24 09:49:14;;;;;;;9.30;6.53;;;;;;;31.37;44.95;93224.22;5052042;28;20547;-78
2023/08/24 09:51:43;;;;;;;7.68;5.72;;;;;;;31.07;45.25;93231.41;5049955;28;20662;-77
2023/08/24 09:54:13;;;;;;;7.45;5.95;;;;;;;31.04;43.96;93218.03;5051390;28;20049;-78
2023/08/24 09:56:41;;;;;;;8.27;5.85;;;;;;;31.57;43.98;93215.22;5047977;28;20053;-78
2023/08/24 09:59:13;;;;;;;8.45;5.30;;;;;;;31.82;40.99;93217.69;5050240;28;20130;-78
2023/08/24 10:01:43;;;;;;;6.45;5.40;;;;;;;31.82;41.42;93212.38;5051419;28;20045;-78
2023/08/24 10:04:13;;;;;;;8.85;6.22;;;;;;;32.23;42.85;93208.72;5047857;28;20587;-78
2023/08/24 10:06:40;;;;;;;10.30;5.85;;;;;;;32.08;41.94;93205.75;5049442;28;20092;-78
2023/08/24 10:09:09;;;;;;;6.38;5.40;;;;;;;32.09;41.48;93209.19;5052144;28;20607;-79
2023/08/24 10:11:41;;;;;;;7.60;5.88;;;;;;;31.95;41.92;93207.75;5051016;28;20509;-78
2023/08/24 10:14:16;;;;;;;9.40;6.38;;;;;;;32.25;41.07;93198.50;5048950;28;20055;-78
2023/08/24 10:16:45;;;;;;;11.30;5.88;;;;;;;32.68;40.54;93208.50;5050580;28;20581;-78
2023/08/24 10:19:14;;;;;;;9.35;6.00;;;;;;;33.01;41.08;93202.69;5048051;28;20049;-78
2023/08/24 10:21:43;;;;;;;6.80;5.72;;;;;;;32.86;41.04;93201.59;5049227;28;20049;-78
2023/08/24 10:24:12;;;;;;;6.95;5.45;;;;;;;32.91;40.49;93195.25;5050269;28;20174;-78
2023/08/24 10:26:40;;;;;;;6.25;5.65;;;;;;;32.93;38.40;93193.78;5050052;28;20098;-79
2023/08/24 10:29:07;;;;;;;8.02;6.03;;;;;;;33.31;39.67;93190.63;5050680;28;20045;-78
2023/08/24 10:31:35;;;;;;;7.35;6.50;;;;;;;33.81;39.63;93197.88;5052237;28;20107;-81
2023/08/24 10:34:03;;;;;;;6.40;5.30;;;;;;;33.81;37.14;93197.88;5050359;28;20052;-81
2023/08/24 10:36:31;;;;;;;6.90;5.45;;;;;;;33.93;38.33;93188.94;5052546;28;20118;-80
2023/08/24 10:38:58;;;;;;;7.15;5.43;;;;;;;33.48;37.84;93184.06;5048836;28;20685;-80
2023/08/24 10:41:27;;;;;;;8.52;6.10;;;;;;;34.19;38.00;93166.84;5049887;28;20224;-80
2023/08/24 10:44:08;;;;;;;5.53;4.93;;;;;;;34.14;36.34;93155.75;5051762;28;20052;-80
2023/08/24 10:46:36;;;;;;;6.72;5.55;;;;;;;34.54;37.03;93169.53;5048921;28;20481;-80
2023/08/24 10:49:05;;;;;;;7.32;4.80;;;;;;;33.82;35.78;93173.56;5049571;28;20071;-81
2023/08/24 10:51:44;;;;;;;6.15;4.82;;;;;;;33.40;36.34;93166.41;5047962;28;20245;-80
2023/08/24 10:54:10;;;;;;;4.88;4.18;;;;;;;33.80;34.37;93162.50;5050431;28;20407;-80
2023/08/24 10:56:39;;;;;;;6.32;4.57;;;;;;;34.56;35.62;93164.59;5048929;28;20556;-79
2023/08/24 10:59:15;;;;;;;6.43;5.07;;;;;;;34.81;33.89;93153.44;5048818;28;20139;-81
2023/08/24 11:01:43;;;;;;;5.72;4.32;;;;;;;34.44;32.57;93168.28;5049198;28;20080;-80
2023/08/24 11:04:12;;;;;;;6.38;4.65;;;;;;;34.32;32.60;93170.03;5051752;28;20048;-78
2023/08/24 11:06:56;;;;;;;7.20;5.25;;;;;;;34.73;34.31;93140.06;5050125;28;20477;-78
2023/08/24 11:09:23;;;;;;;6.70;5.32;;;;;;;34.05;35.01;93140.03;5047951;28;20052;-78
2023/08/24 11:11:57;;;;;;;6.22;5.00;;;;;;;34.47;35.60;93146.22;5048833;28;20040;-78
2023/08/24 11:14:26;;;;;;;7.57;5.17;;;;;;;34.81;34.84;93132.88;5050381;28;20052;-78
2023/08/24 11:16:54;;;;;;;6.68;4.88;;;;;;;33.79;35.04;93160.19;5054324;28;20326;-77
2023/08/24 11:19:20;;;;;;;11.05;4.93;;;;;;;30.59;46.63;93146.41;5050178;28;20041;-77
2023/08/24 11:21:47;;;;;;;7.95;6.25;;;;;;;29.79;49.90;93161.94;5048667;28;20055;-76
2023/08/24 11:24:17;;;;;;;14.38;5.70;;;;;;;29.54;50.87;93154.81;5048312;28;20044;-79
2023/08/24 11:26:44;;;;;;;9.48;6.43;;;;;;;29.20;52.63;93159.38;5049304;28;20897;-77